sensor_id;sensor_type;location;lat;lon;timestamp;pressure;altitude;pressure_sealevel;temperature
67513;BMP280;54356;49.812;24.060;2023-05-20T00:00:52;98139.78;;;22.66
67513;BMP280;54356;49.812;24.060;2023-05-20T00:01:52;98170.50;;;22.67
67513;BMP280;54356;49.812;24.060;2023-05-20T00:02:53;98161.59;;;22.66
67513;BMP280;54356;49.812;24.060;2023-05-20T00:03:53;98134.34;;;22.66
67513;BMP280;54356;49.812;24.060;2023-05-20T00:04:53;98201.19;;;22.67
67513;BMP280;54356;49.812;24.060;2023-05-20T00:05:54;98200.47;;;22.67
67513;BMP280;54356;49.812;24.060;2023-05-20T00:06:54;98184.13;;;22.67
67513;BMP280;54356;49.812;24.060;2023-05-20T00:07:54;98189.56;;;22.67
67513;BMP280;54356;49.812;24.060;2023-05-20T00:08:55;98218.28;;;22.68
67513;BMP280;54356;49.812;24.060;2023-05-20T00:09:55;98137.81;;;22.67
67513;BMP280;54356;49.812;24.060;2023-05-20T00:10:55;98139.78;;;22.66
67513;BMP280;54356;49.812;24.060;2023-05-20T00:11:56;98170.50;;;22.67
67513;BMP280;54356;49.812;24.060;2023-05-20T00:12:56;98240.06;;;22.68
67513;BMP280;54356;49.812;24.060;2023-05-20T00:13:56;98173.22;;;22.67
67513;BMP280;54356;49.812;24.060;2023-05-20T00:14:57;98215.56;;;22.68
67513;BMP280;54356;49.812;24.060;2023-05-20T00:15:57;98264.59;;;22.68
67513;BMP280;54356;49.812;24.060;2023-05-20T00:16:57;98197.75;;;22.67
67513;BMP280;54356;49.812;24.060;2023-05-20T00:17:59;98190.28;;;22.67
67513;BMP280;54356;49.812;24.060;2023-05-20T00:19:00;98174.69;;;22.68
67513;BMP280;54356;49.812;24.060;2023-05-20T00:20:00;98137.81;;;22.67
67513;BMP280;54356;49.812;24.060;2023-05-20T00:21:00;98154.16;;;22.67
67513;BMP280;54356;49.812;24.060;2023-05-20T00:22:01;98212.84;;;22.68
67513;BMP280;54356;49.812;24.060;2023-05-20T00:23:01;98234.63;;;22.68
67513;BMP280;54356;49.812;24.060;2023-05-20T00:24:01;98165.06;;;22.67
67513;BMP280;54356;49.812;24.060;2023-05-20T00:25:02;98206.63;;;22.67
67513;BMP280;54356;49.812;24.060;2023-05-20T00:26:02;98328.75;;;22.69
67513;BMP280;54356;49.812;24.060;2023-05-20T00:27:03;98368.44;;;22.70
67513;BMP280;54356;49.812;24.060;2023-05-20T00:28:04;98338.47;;;22.70
67513;BMP280;54356;49.812;24.060;2023-05-20T00:29:05;98409.31;;;22.70
67513;BMP280;54356;49.812;24.060;2023-05-20T00:30:06;98373.88;;;22.70
67513;BMP280;54356;49.812;24.060;2023-05-20T00:31:06;98401.13;;;22.70
67513;BMP280;54356;49.812;24.060;2023-05-20T00:32:07;98296.84;;;22.69
67513;BMP280;54356;49.812;24.060;2023-05-20T00:33:07;98225.22;;;22.69
67513;BMP280;54356;49.812;24.060;2023-05-20T00:34:08;98286.69;;;22.70
67513;BMP280;54356;49.812;24.060;2023-05-20T00:35:08;98314.69;;;22.70
67513;BMP280;54356;49.812;24.060;2023-05-20T00:36:08;98262.63;;;22.68
67513;BMP280;54356;49.812;24.060;2023-05-20T00:37:09;98313.94;;;22.70
67513;BMP280;54356;49.812;24.060;2023-05-20T00:38:09;98341.19;;;22.70
67513;BMP280;54356;49.812;24.060;2023-05-20T00:39:10;98386.28;;;22.71
67513;BMP280;54356;49.812;24.060;2023-05-20T00:40:11;98350.09;;;22.70
67513;BMP280;54356;49.812;24.060;2023-05-20T00:41:11;98303.78;;;22.70
67513;BMP280;54356;49.812;24.060;2023-05-20T00:42:21;98318.16;;;22.71
67513;BMP280;54356;49.812;24.060;2023-05-20T00:43:21;98313.94;;;22.70
67513;BMP280;54356;49.812;24.060;2023-05-20T00:44:22;98290.16;;;22.70
67513;BMP280;54356;49.812;24.060;2023-05-20T00:45:22;98283.22;;;22.69
67513;BMP280;54356;49.812;24.060;2023-05-20T00:46:22;98254.00;;;22.70
67513;BMP280;54356;49.812;24.060;2023-05-20T00:47:25;98322.09;;;22.70
67513;BMP280;54356;49.812;24.060;2023-05-20T00:48:34;98275.50;;;22.68
67513;BMP280;54356;49.812;24.060;2023-05-20T00:49:36;98292.88;;;22.70
67513;BMP280;54356;49.812;24.060;2023-05-20T00:50:37;98252.75;;;22.71
67513;BMP280;54356;49.812;24.060;2023-05-20T00:51:38;98277.28;;;22.71
67513;BMP280;54356;49.812;24.060;2023-05-20T00:52:38;98259.44;;;22.70
67513;BMP280;54356;49.812;24.060;2023-05-20T00:53:39;98211.59;;;22.69
67513;BMP280;54356;49.812;24.060;2023-05-20T00:54:40;98142.75;;;22.68
67513;BMP280;54356;49.812;24.060;2023-05-20T00:55:40;98191.78;;;22.68
67513;BMP280;54356;49.812;24.060;2023-05-20T00:56:41;98249.28;;;22.70
67513;BMP280;54356;49.812;24.060;2023-05-20T00:57:42;98247.78;;;22.69
67513;BMP280;54356;49.812;24.060;2023-05-20T00:58:42;98277.00;;;22.69
67513;BMP280;54356;49.812;24.060;2023-05-20T00:59:43;98234.91;;;22.70
67513;BMP280;54356;49.812;24.060;2023-05-20T01:00:43;98201.47;;;22.69
67513;BMP280;54356;49.812;24.060;2023-05-20T01:01:44;98259.44;;;22.70
67513;BMP280;54356;49.812;24.060;2023-05-20T01:02:44;98338.69;;;22.72
67513;BMP280;54356;49.812;24.060;2023-05-20T01:03:45;98359.03;;;22.71
67513;BMP280;54356;49.812;24.060;2023-05-20T01:04:45;98252.00;;;22.70
67513;BMP280;54356;49.812;24.060;2023-05-20T01:05:46;98200.69;;;22.69
67513;BMP280;54356;49.812;24.060;2023-05-20T01:06:46;98134.09;;;22.70
67513;BMP280;54356;49.812;24.060;2023-05-20T01:07:47;98160.59;;;22.69
67513;BMP280;54356;49.812;24.060;2023-05-20T01:08:47;98151.66;;;22.69
67513;BMP280;54356;49.812;24.060;2023-05-20T01:09:47;98110.78;;;22.69
67513;BMP280;54356;49.812;24.060;2023-05-20T01:10:51;98084.78;;;22.68
67513;BMP280;54356;49.812;24.060;2023-05-20T01:11:58;98076.59;;;22.68
67513;BMP280;54356;49.812;24.060;2023-05-20T01:13:04;98070.41;;;22.67
67513;BMP280;54356;49.812;24.060;2023-05-20T01:14:07;98126.38;;;22.68
67513;BMP280;54356;49.812;24.060;2023-05-20T01:15:11;98142.00;;;22.68
67513;BMP280;54356;49.812;24.060;2023-05-20T01:16:13;98172.72;;;22.68
67513;BMP280;54356;49.812;24.060;2023-05-20T01:17:18;98176.94;;;22.69
67513;BMP280;54356;49.812;24.060;2023-05-20T01:18:19;98087.50;;;22.68
67513;BMP280;54356;49.812;24.060;2023-05-20T01:19:37;98092.94;;;22.68
67513;BMP280;54356;49.812;24.060;2023-05-20T01:20:40;98112.03;;;22.68
67513;BMP280;54356;49.812;24.060;2023-05-20T01:21:41;98131.84;;;22.68
67513;BMP280;54356;49.812;24.060;2023-05-20T01:22:51;98142.00;;;22.68
67513;BMP280;54356;49.812;24.060;2023-05-20T01:23:52;98124.19;;;22.67
67513;BMP280;54356;49.812;24.060;2023-05-20T01:24:52;98128.38;;;22.68
67513;BMP280;54356;49.812;24.060;2023-05-20T01:25:53;98098.41;;;22.68
67513;BMP280;54356;49.812;24.060;2023-05-20T01:26:53;98076.59;;;22.68
67513;BMP280;54356;49.812;24.060;2023-05-20T01:27:55;98081.31;;;22.67
67513;BMP280;54356;49.812;24.060;2023-05-20T01:28:56;98120.19;;;22.68
67513;BMP280;54356;49.812;24.060;2023-05-20T01:29:56;98152.88;;;22.68
67513;BMP280;54356;49.812;24.060;2023-05-20T01:30:58;98127.63;;;22.67
67513;BMP280;54356;49.812;24.060;2023-05-20T01:31:59;98140.00;;;22.68
67513;BMP280;54356;49.812;24.060;2023-05-20T01:33:07;98076.59;;;22.68
67513;BMP280;54356;49.812;24.060;2023-05-20T01:34:08;98135.09;;;22.67
67513;BMP280;54356;49.812;24.060;2023-05-20T01:35:09;98047.91;;;22.67
67513;BMP280;54356;49.812;24.060;2023-05-20T01:36:10;98069.69;;;22.67
67513;BMP280;54356;49.812;24.060;2023-05-20T01:37:11;98068.94;;;22.66
67513;BMP280;54356;49.812;24.060;2023-05-20T01:38:12;98024.63;;;22.66
67513;BMP280;54356;49.812;24.060;2023-05-20T01:39:15;98016.44;;;22.66
67513;BMP280;54356;49.812;24.060;2023-05-20T01:40:17;98023.13;;;22.65
67513;BMP280;54356;49.812;24.060;2023-05-20T01:41:18;98019.16;;;22.66
67513;BMP280;54356;49.812;24.060;2023-05-20T01:42:19;98057.31;;;22.66
67513;BMP280;54356;49.812;24.060;2023-05-20T01:43:20;98005.53;;;22.66
67513;BMP280;54356;49.812;24.060;2023-05-20T01:44:21;98051.13;;;22.65
67513;BMP280;54356;49.812;24.060;2023-05-20T01:45:23;98056.06;;;22.67
67513;BMP280;54356;49.812;24.060;2023-05-20T01:46:23;98039.47;;;22.65
67513;BMP280;54356;49.812;24.060;2023-05-20T01:47:23;98019.16;;;22.66
67513;BMP280;54356;49.812;24.060;2023-05-20T01:48:24;98007.53;;;22.65
67513;BMP280;54356;49.812;24.060;2023-05-20T01:49:24;98067.47;;;22.65
67513;BMP280;54356;49.812;24.060;2023-05-20T01:50:24;98078.34;;;22.65
67513;BMP280;54356;49.812;24.060;2023-05-20T01:51:25;98080.34;;;22.65
67513;BMP280;54356;49.812;24.060;2023-05-20T01:52:25;98009.50;;;22.65
67513;BMP280;54356;49.812;24.060;2023-05-20T01:53:25;98042.19;;;22.65
67513;BMP280;54356;49.812;24.060;2023-05-20T01:54:26;98019.66;;;22.64
67513;BMP280;54356;49.812;24.060;2023-05-20T01:55:26;98024.13;;;22.62
67513;BMP280;54356;49.812;24.060;2023-05-20T01:56:26;98027.81;;;22.64
67513;BMP280;54356;49.812;24.060;2023-05-20T01:57:27;98036.75;;;22.65
67513;BMP280;54356;49.812;24.060;2023-05-20T01:58:27;98072.91;;;22.65
67513;BMP280;54356;49.812;24.060;2023-05-20T01:59:27;98019.66;;;22.64
67513;BMP280;54356;49.812;24.060;2023-05-20T02:00:28;97989.69;;;22.64
67513;BMP280;54356;49.812;24.060;2023-05-20T02:01:28;98037.97;;;22.64
67513;BMP280;54356;49.812;24.060;2023-05-20T02:02:28;98036.53;;;22.63
67513;BMP280;54356;49.812;24.060;2023-05-20T02:03:29;97994.91;;;22.62
67513;BMP280;54356;49.812;24.060;2023-05-20T02:04:29;98084.28;;;22.64
67513;BMP280;54356;49.812;24.060;2023-05-20T02:05:29;98226.22;;;22.66
67513;BMP280;54356;49.812;24.060;2023-05-20T02:06:29;98264.38;;;22.66
67513;BMP280;54356;49.812;24.060;2023-05-20T02:07:30;98276.00;;;22.66
67513;BMP280;54356;49.812;24.060;2023-05-20T02:08:30;98318.88;;;22.66
67513;BMP280;54356;49.812;24.060;2023-05-20T02:09:30;98256.19;;;22.66
67513;BMP280;54356;49.812;24.060;2023-05-20T02:10:31;98253.47;;;22.66
67513;BMP280;54356;49.812;24.060;2023-05-20T02:11:31;98270.56;;;22.66
67513;BMP280;54356;49.812;24.060;2023-05-20T02:12:31;98197.50;;;22.65
67513;BMP280;54356;49.812;24.060;2023-05-20T02:13:32;98177.19;;;22.66
67513;BMP280;54356;49.812;24.060;2023-05-20T02:14:32;98173.72;;;22.65
67513;BMP280;54356;49.812;24.060;2023-05-20T02:15:32;98188.09;;;22.66
67513;BMP280;54356;49.812;24.060;2023-05-20T02:16:32;98205.91;;;22.67
67513;BMP280;54356;49.812;24.060;2023-05-20T02:17:33;98192.78;;;22.65
67513;BMP280;54356;49.812;24.060;2023-05-20T02:18:33;98194.28;;;22.66
67513;BMP280;54356;49.812;24.060;2023-05-20T02:19:33;98187.34;;;22.65
67513;BMP280;54356;49.812;24.060;2023-05-20T02:20:35;98250.22;;;22.67
67513;BMP280;54356;49.812;24.060;2023-05-20T02:21:35;98153.91;;;22.65
67513;BMP280;54356;49.812;24.060;2023-05-20T02:22:38;98142.50;;;22.66
67513;BMP280;54356;49.812;24.060;2023-05-20T02:23:39;98151.44;;;22.67
67513;BMP280;54356;49.812;24.060;2023-05-20T02:24:39;98198.97;;;22.66
67513;BMP280;54356;49.812;24.060;2023-05-20T02:25:39;98227.72;;;22.67
67513;BMP280;54356;49.812;24.060;2023-05-20T02:26:40;98222.28;;;22.67
67513;BMP280;54356;49.812;24.060;2023-05-20T02:27:40;98282.94;;;22.67
67513;BMP280;54356;49.812;24.060;2023-05-20T02:28:40;98283.69;;;22.68
67513;BMP280;54356;49.812;24.060;2023-05-20T02:29:42;98222.28;;;22.67
67513;BMP280;54356;49.812;24.060;2023-05-20T02:30:42;98294.56;;;22.68
67513;BMP280;54356;49.812;24.060;2023-05-20T02:31:43;98185.59;;;22.68
67513;BMP280;54356;49.812;24.060;2023-05-20T02:32:43;98207.38;;;22.68
67513;BMP280;54356;49.812;24.060;2023-05-20T02:33:44;98122.69;;;22.66
67513;BMP280;54356;49.812;24.060;2023-05-20T02:36:49;98263.38;;;22.69
67513;BMP280;54356;49.812;24.060;2023-05-20T02:38:27;98422.94;;;22.70
67513;BMP280;54356;49.812;24.060;2023-05-20T02:39:27;98502.19;;;22.72
67513;BMP280;54356;49.812;24.060;2023-05-20T02:40:28;98561.66;;;22.73
67513;BMP280;54356;49.812;24.060;2023-05-20T02:41:28;99091.25;;;22.79
67513;BMP280;54356;49.812;24.060;2023-05-20T02:42:28;98986.91;;;22.79
67513;BMP280;54356;49.812;24.060;2023-05-20T02:43:29;98744.81;;;22.77
67513;BMP280;54356;49.812;24.060;2023-05-20T02:44:30;98545.09;;;22.77
67513;BMP280;54356;49.812;24.060;2023-05-20T02:45:30;98370.16;;;22.73
67513;BMP280;54356;49.812;24.060;2023-05-20T02:46:30;98251.50;;;22.72
67513;BMP280;54356;49.812;24.060;2023-05-20T02:47:31;98168.28;;;22.71
67513;BMP280;54356;49.812;24.060;2023-05-20T02:48:31;98130.84;;;22.71
67513;BMP280;54356;49.812;24.060;2023-05-20T02:49:31;98092.00;;;22.71
67513;BMP280;54356;49.812;24.060;2023-05-20T02:50:32;98106.84;;;22.70
67513;BMP280;54356;49.812;24.060;2023-05-20T02:51:32;98061.75;;;22.69
67513;BMP280;54356;49.812;24.060;2023-05-20T02:52:32;98082.34;;;22.70
67513;BMP280;54356;49.812;24.060;2023-05-20T02:53:32;98078.09;;;22.69
67513;BMP280;54356;49.812;24.060;2023-05-20T02:54:33;98025.56;;;22.68
67513;BMP280;54356;49.812;24.060;2023-05-20T02:55:36;97955.25;;;22.67
67513;BMP280;54356;49.812;24.060;2023-05-20T02:56:36;98035.72;;;22.68
67513;BMP280;54356;49.812;24.060;2023-05-20T02:57:37;98089.00;;;22.69
67513;BMP280;54356;49.812;24.060;2023-05-20T02:58:37;98106.56;;;22.68
67513;BMP280;54356;49.812;24.060;2023-05-20T02:59:38;98148.94;;;22.69
67513;BMP280;54356;49.812;24.060;2023-05-20T03:00:38;98190.56;;;22.69
67513;BMP280;54356;49.812;24.060;2023-05-20T03:01:38;98136.53;;;22.68
67513;BMP280;54356;49.812;24.060;2023-05-20T03:02:39;98049.34;;;22.68
67513;BMP280;54356;49.812;24.060;2023-05-20T03:03:39;98080.06;;;22.68
67513;BMP280;54356;49.812;24.060;2023-05-20T03:04:39;98052.09;;;22.68
67513;BMP280;54356;49.812;24.060;2023-05-20T03:05:39;97949.81;;;22.67
67513;BMP280;54356;49.812;24.060;2023-05-20T03:06:40;97980.28;;;22.65
67513;BMP280;54356;49.812;24.060;2023-05-20T03:07:40;97989.19;;;22.66
67513;BMP280;54356;49.812;24.060;2023-05-20T03:08:40;97998.13;;;22.66
67513;BMP280;54356;49.812;24.060;2023-05-20T03:09:41;97998.84;;;22.67
67513;BMP280;54356;49.812;24.060;2023-05-20T03:10:41;98002.06;;;22.65
67513;BMP280;54356;49.812;24.060;2023-05-20T03:11:41;98062.97;;;22.68
67513;BMP280;54356;49.812;24.060;2023-05-20T03:12:42;98061.53;;;22.67
67513;BMP280;54356;49.812;24.060;2023-05-20T03:13:42;98043.69;;;22.66
67513;BMP280;54356;49.812;24.060;2023-05-20T03:14:42;98102.38;;;22.67
67513;BMP280;54356;49.812;24.060;2023-05-20T03:15:43;98031.56;;;22.67
67513;BMP280;54356;49.812;24.060;2023-05-20T03:16:43;97958.97;;;22.64
67513;BMP280;54356;49.812;24.060;2023-05-20T03:17:43;97957.00;;;22.64
67513;BMP280;54356;49.812;24.060;2023-05-20T03:18:44;97974.84;;;22.65
67513;BMP280;54356;49.812;24.060;2023-05-20T03:19:44;98006.78;;;22.65
67513;BMP280;54356;49.812;24.060;2023-05-20T03:20:47;98024.63;;;22.66
67513;BMP280;54356;49.812;24.060;2023-05-20T03:21:47;97969.38;;;22.65
67513;BMP280;54356;49.812;24.060;2023-05-20T03:22:48;97957.75;;;22.65
67513;BMP280;54356;49.812;24.060;2023-05-20T03:23:48;97923.56;;;22.64
67513;BMP280;54356;49.812;24.060;2023-05-20T03:24:48;98004.78;;;22.65
67513;BMP280;54356;49.812;24.060;2023-05-20T03:25:49;97967.91;;;22.64
67513;BMP280;54356;49.812;24.060;2023-05-20T03:26:49;97990.44;;;22.65
67513;BMP280;54356;49.812;24.060;2023-05-20T03:27:49;98002.06;;;22.65
67513;BMP280;54356;49.812;24.060;2023-05-20T03:28:50;97997.88;;;22.64
67513;BMP280;54356;49.812;24.060;2023-05-20T03:29:50;97937.19;;;22.64
67513;BMP280;54356;49.812;24.060;2023-05-20T03:30:50;97980.78;;;22.64
67513;BMP280;54356;49.812;24.060;2023-05-20T03:31:51;98046.16;;;22.64
67513;BMP280;54356;49.812;24.060;2023-05-20T03:32:52;98028.56;;;22.65
67513;BMP280;54356;49.812;24.060;2023-05-20T03:33:52;97942.63;;;22.64
67513;BMP280;54356;49.812;24.060;2023-05-20T03:34:52;97965.69;;;22.63
67513;BMP280;54356;49.812;24.060;2023-05-20T03:35:53;97988.94;;;22.64
67513;BMP280;54356;49.812;24.060;2023-05-20T03:36:53;97973.34;;;22.64
67513;BMP280;54356;49.812;24.060;2023-05-20T03:37:53;97987.50;;;22.63
67513;BMP280;54356;49.812;24.060;2023-05-20T03:38:54;98032.53;;;22.64
67513;BMP280;54356;49.812;24.060;2023-05-20T03:39:54;97998.38;;;22.63
67513;BMP280;54356;49.812;24.060;2023-05-20T03:40:54;97946.63;;;22.63
67513;BMP280;54356;49.812;24.060;2023-05-20T03:41:55;98043.44;;;22.64
67513;BMP280;54356;49.812;24.060;2023-05-20T03:42:55;98000.59;;;22.64
67513;BMP280;54356;49.812;24.060;2023-05-20T03:43:55;98037.97;;;22.64
67513;BMP280;54356;49.812;24.060;2023-05-20T03:44:56;98036.00;;;22.64
67513;BMP280;54356;49.812;24.060;2023-05-20T03:45:56;98052.88;;;22.63
67513;BMP280;54356;49.812;24.060;2023-05-20T03:46:56;98079.59;;;22.64
67513;BMP280;54356;49.812;24.060;2023-05-20T03:47:56;98111.78;;;22.66
67513;BMP280;54356;49.812;24.060;2023-05-20T03:48:57;98111.06;;;22.65
67513;BMP280;54356;49.812;24.060;2023-05-20T03:49:57;98148.44;;;22.65
67513;BMP280;54356;49.812;24.060;2023-05-20T03:50:57;98082.31;;;22.64
67513;BMP280;54356;49.812;24.060;2023-05-20T03:51:58;98081.56;;;22.64
67513;BMP280;54356;49.812;24.060;2023-05-20T03:52:58;98121.94;;;22.65
67513;BMP280;54356;49.812;24.060;2023-05-20T03:53:58;98186.84;;;22.67
67513;BMP280;54356;49.812;24.060;2023-05-20T03:54:59;98226.97;;;22.66
67513;BMP280;54356;49.812;24.060;2023-05-20T03:55:59;98216.06;;;22.66
67513;BMP280;54356;49.812;24.060;2023-05-20T03:56:59;98188.81;;;22.66
67513;BMP280;54356;49.812;24.060;2023-05-20T03:58:00;98204.44;;;22.66
67513;BMP280;54356;49.812;24.060;2023-05-20T03:59:00;98270.06;;;22.68
67513;BMP280;54356;49.812;24.060;2023-05-20T04:00:01;98310.19;;;22.67
67513;BMP280;54356;49.812;24.060;2023-05-20T04:01:01;98293.34;;;22.69
67513;BMP280;54356;49.812;24.060;2023-05-20T04:02:02;98182.88;;;22.68
67513;BMP280;54356;49.812;24.060;2023-05-20T04:03:02;98147.22;;;22.66
67513;BMP280;54356;49.812;24.060;2023-05-20T04:04:03;98212.84;;;22.68
67513;BMP280;54356;49.812;24.060;2023-05-20T04:05:03;98237.34;;;22.68
67513;BMP280;54356;49.812;24.060;2023-05-20T04:06:04;98225.00;;;22.67
67513;BMP280;54356;49.812;24.060;2023-05-20T04:07:04;98269.59;;;22.69
67513;BMP280;54356;49.812;24.060;2023-05-20T04:08:04;98245.53;;;22.68
67513;BMP280;54356;49.812;24.060;2023-05-20T04:09:05;98273.06;;;22.70
67513;BMP280;54356;49.812;24.060;2023-05-20T04:10:05;98276.53;;;22.70
67513;BMP280;54356;49.812;24.060;2023-05-20T04:11:06;98299.56;;;22.69
67513;BMP280;54356;49.812;24.060;2023-05-20T04:12:06;98296.06;;;22.69
67513;BMP280;54356;49.812;24.060;2023-05-20T04:13:07;98243.09;;;22.70
67513;BMP280;54356;49.812;24.060;2023-05-20T04:14:07;98233.41;;;22.69
67513;BMP280;54356;49.812;24.060;2023-05-20T04:15:08;98209.66;;;22.69
67513;BMP280;54356;49.812;24.060;2023-05-20T04:16:09;98264.16;;;22.69
67513;BMP280;54356;49.812;24.060;2023-05-20T04:17:09;98270.34;;;22.70
67513;BMP280;54356;49.812;24.060;2023-05-20T04:18:10;98299.06;;;22.71
67513;BMP280;54356;49.812;24.060;2023-05-20T04:19:11;98299.06;;;22.71
67513;BMP280;54356;49.812;24.060;2023-05-20T04:20:11;98263.66;;;22.71
67513;BMP280;54356;49.812;24.060;2023-05-20T04:21:12;98255.47;;;22.71
67513;BMP280;54356;49.812;24.060;2023-05-20T04:22:12;98250.03;;;22.71
67513;BMP280;54356;49.812;24.060;2023-05-20T04:23:12;98221.28;;;22.70
67513;BMP280;54356;49.812;24.060;2023-05-20T04:24:13;98271.84;;;22.71
67513;BMP280;54356;49.812;24.060;2023-05-20T04:25:13;98220.06;;;22.71
67513;BMP280;54356;49.812;24.060;2023-05-20T04:26:13;98258.22;;;22.71
67513;BMP280;54356;49.812;24.060;2023-05-20T04:27:13;98266.38;;;22.71
67513;BMP280;54356;49.812;24.060;2023-05-20T04:28:14;98252.75;;;22.71
67513;BMP280;54356;49.812;24.060;2023-05-20T04:29:14;98237.63;;;22.70
67513;BMP280;54356;49.812;24.060;2023-05-20T04:30:15;98258.94;;;22.71
67513;BMP280;54356;49.812;24.060;2023-05-20T04:31:15;98329.28;;;22.73
67513;BMP280;54356;49.812;24.060;2023-05-20T04:32:17;98364.72;;;22.73
67513;BMP280;54356;49.812;24.060;2023-05-20T04:33:18;98402.38;;;22.74
67513;BMP280;54356;49.812;24.060;2023-05-20T04:34:18;98330.78;;;22.74
67513;BMP280;54356;49.812;24.060;2023-05-20T04:35:18;98312.94;;;22.73
67513;BMP280;54356;49.812;24.060;2023-05-20T04:36:19;98269.34;;;22.73
67513;BMP280;54356;49.812;24.060;2023-05-20T04:37:19;98251.50;;;22.72
67513;BMP280;54356;49.812;24.060;2023-05-20T04:38:19;98296.59;;;22.73
67513;BMP280;54356;49.812;24.060;2023-05-20T04:39:20;98277.50;;;22.73
67513;BMP280;54356;49.812;24.060;2023-05-20T04:40:20;98291.13;;;22.73
67513;BMP280;54356;49.812;24.060;2023-05-20T04:41:21;98246.31;;;22.74
67513;BMP280;54356;49.812;24.060;2023-05-20T04:42:21;98313.69;;;22.73
67513;BMP280;54356;49.812;24.060;2023-05-20T04:43:23;98362.22;;;22.75
67513;BMP280;54356;49.812;24.060;2023-05-20T04:44:23;98343.16;;;22.75
67513;BMP280;54356;49.812;24.060;2023-05-20T04:45:24;98316.41;;;22.73
67513;BMP280;54356;49.812;24.060;2023-05-20T04:46:25;98303.53;;;22.74
67513;BMP280;54356;49.812;24.060;2023-05-20T04:47:25;98231.19;;;22.73
67513;BMP280;54356;49.812;24.060;2023-05-20T04:48:26;98242.09;;;22.73
67513;BMP280;54356;49.812;24.060;2023-05-20T04:49:26;98177.91;;;22.72
67513;BMP280;54356;49.812;24.060;2023-05-20T04:50:27;98153.41;;;22.72
67513;BMP280;54356;49.812;24.060;2023-05-20T04:51:27;98120.72;;;22.72
67513;BMP280;54356;49.812;24.060;2023-05-20T04:52:27;98137.06;;;22.72
67513;BMP280;54356;49.812;24.060;2023-05-20T04:53:28;98108.34;;;22.71
67513;BMP280;54356;49.812;24.060;2023-05-20T04:54:30;98142.50;;;22.72
67513;BMP280;54356;49.812;24.060;2023-05-20T04:55:31;98157.63;;;22.73
67513;BMP280;54356;49.812;24.060;2023-05-20T04:56:31;98142.50;;;22.72
67513;BMP280;54356;49.812;24.060;2023-05-20T04:57:31;98098.16;;;22.71
67513;BMP280;54356;49.812;24.060;2023-05-20T04:58:31;98121.44;;;22.72
67513;BMP280;54356;49.812;24.060;2023-05-20T04:59:32;98143.25;;;22.72
67513;BMP280;54356;49.812;24.060;2023-05-20T05:00:41;98154.88;;;22.73
67513;BMP280;54356;49.812;24.060;2023-05-20T05:01:42;98198.50;;;22.73
67513;BMP280;54356;49.812;24.060;2023-05-20T05:02:42;98296.09;;;22.74
67513;BMP280;54356;49.812;24.060;2023-05-20T05:03:42;98336.97;;;22.74
67513;BMP280;54356;49.812;24.060;2023-05-20T05:04:43;98310.44;;;22.75
67513;BMP280;54356;49.812;24.060;2023-05-20T05:05:43;98390.97;;;22.76
67513;BMP280;54356;49.812;24.060;2023-05-20T05:06:43;98363.72;;;22.76
67513;BMP280;54356;49.812;24.060;2023-05-20T05:07:44;98365.69;;;22.75
67513;BMP280;54356;49.812;24.060;2023-05-20T05:08:44;98362.50;;;22.77
67513;BMP280;54356;49.812;24.060;2023-05-20T05:09:44;98347.38;;;22.76
67513;BMP280;54356;49.812;24.060;2023-05-20T05:10:45;98333.75;;;22.76
67513;BMP280;54356;49.812;24.060;2023-05-20T05:11:45;98406.13;;;22.77
67513;BMP280;54356;49.812;24.060;2023-05-20T05:12:45;98362.50;;;22.77
67513;BMP280;54356;49.812;24.060;2023-05-20T05:13:46;98346.16;;;22.77
67513;BMP280;54356;49.812;24.060;2023-05-20T05:14:46;98338.72;;;22.77
67513;BMP280;54356;49.812;24.060;2023-05-20T05:15:46;98302.56;;;22.77
67513;BMP280;54356;49.812;24.060;2023-05-20T05:16:47;98332.53;;;22.77
67513;BMP280;54356;49.812;24.060;2023-05-20T05:17:47;98318.13;;;22.76
67513;BMP280;54356;49.812;24.060;2023-05-20T05:18:47;98429.41;;;22.78
67513;BMP280;54356;49.812;24.060;2023-05-20T05:19:50;98419.97;;;22.79
67513;BMP280;54356;49.812;24.060;2023-05-20T05:20:58;98389.28;;;22.78
67513;BMP280;54356;49.812;24.060;2023-05-20T05:21:58;98385.81;;;22.78
67513;BMP280;54356;49.812;24.060;2023-05-20T05:22:58;98381.09;;;22.78
67513;BMP280;54356;49.812;24.060;2023-05-20T05:23:59;98376.38;;;22.79
67513;BMP280;54356;49.812;24.060;2023-05-20T05:24:59;98438.56;;;22.80
67513;BMP280;54356;49.812;24.060;2023-05-20T05:25:59;98437.81;;;22.80
67513;BMP280;54356;49.812;24.060;2023-05-20T05:26:59;98428.41;;;22.81
67513;BMP280;54356;49.812;24.060;2023-05-20T05:28:00;98402.38;;;22.80
67513;BMP280;54356;49.812;24.060;2023-05-20T05:29:00;98448.72;;;22.80
67513;BMP280;54356;49.812;24.060;2023-05-20T05:30:01;98480.94;;;22.81
67513;BMP280;54356;49.812;24.060;2023-05-20T05:31:02;98478.97;;;22.82
67513;BMP280;54356;49.812;24.060;2023-05-20T05:32:02;98461.88;;;22.81
67513;BMP280;54356;49.812;24.060;2023-05-20T05:33:03;98487.16;;;22.82
67513;BMP280;54356;49.812;24.060;2023-05-20T05:34:03;98495.31;;;22.82
67513;BMP280;54356;49.812;24.060;2023-05-20T05:35:04;98491.34;;;22.83
67513;BMP280;54356;49.812;24.060;2023-05-20T05:36:04;98532.22;;;22.83
67513;BMP280;54356;49.812;24.060;2023-05-20T05:37:05;98469.53;;;22.83
67513;BMP280;54356;49.812;24.060;2023-05-20T05:38:05;98494.81;;;22.83
67513;BMP280;54356;49.812;24.060;2023-05-20T05:39:05;98468.78;;;22.82
67513;BMP280;54356;49.812;24.060;2023-05-20T05:40:06;98472.25;;;22.83
67513;BMP280;54356;49.812;24.060;2023-05-20T05:41:06;98476.47;;;22.84
67513;BMP280;54356;49.812;24.060;2023-05-20T05:42:07;98515.38;;;22.84
67513;BMP280;54356;49.812;24.060;2023-05-20T05:43:07;98532.53;;;22.85
67513;BMP280;54356;49.812;24.060;2023-05-20T05:44:07;98514.63;;;22.84
67513;BMP280;54356;49.812;24.060;2023-05-20T05:45:08;98429.41;;;22.83
67513;BMP280;54356;49.812;24.060;2023-05-20T05:46:08;98449.97;;;22.84
67513;BMP280;54356;49.812;24.060;2023-05-20T05:47:09;98411.81;;;22.84
67513;BMP280;54356;49.812;24.060;2023-05-20T05:48:09;98400.91;;;22.84